Time;durP1;ratioP1;P1;durP2;ratioP2;P2;SDS_P1;SDS_P2;PMS_P1;PMS_P2;Temp;Humidity;BMP_temperature;BMP_pressure;BME280_temperature;BME280_humidity;BME280_pressure;Samples;Min_cycle;Max_cycle;Signal;HPM_P1;HPM_P2
2021/12/04 00:01:11;;;;;;;5.47;0.93;;;;;;;4.66;100.00;99532.72;6182501;23;20036;-86
2021/12/04 00:03:41;;;;;;;4.40;0.80;;;;;;;4.53;100.00;99532.38;6156299;23;20009;-88
2021/12/04 00:06:21;;;;;;;8.93;1.13;;;;;;;4.51;100.00;99535.19;6106721;23;20011;-88
2021/12/04 00:09:14;;;;;;;1.45;0.88;;;;;;;4.44;100.00;99544.84;6109608;23;20009;-87
2021/12/04 00:11:47;;;;;;;4.70;1.05;;;;;;;4.33;100.00;99538.00;6110502;23;20350;-86
2021/12/04 00:14:13;;;;;;;6.47;1.40;;;;;;;4.27;100.00;99524.56;6155993;23;20009;-85
2021/12/04 00:16:38;;;;;;;3.97;1.00;;;;;;;4.28;100.00;99534.19;6131257;23;20350;-85
2021/12/04 00:19:04;;;;;;;3.38;0.80;;;;;;;4.25;100.00;99529.19;6133579;23;20008;-87
2021/12/04 00:21:30;;;;;;;18.17;2.00;;;;;;;4.14;100.00;99536.50;6158335;23;20055;-86
2021/12/04 00:23:55;;;;;;;11.30;1.02;;;;;;;4.18;100.00;99534.34;6183656;23;20464;-86
2021/12/04 00:26:21;;;;;;;4.90;1.25;;;;;;;4.13;100.00;99536.69;6157829;23;20500;-86
2021/12/04 00:28:46;;;;;;;9.65;1.48;;;;;;;4.15;100.00;99521.38;6132981;23;20001;-86
2021/12/04 00:31:13;;;;;;;5.18;0.98;;;;;;;4.13;100.00;99536.69;6158356;23;20236;-87
2021/12/04 00:33:42;;;;;;;8.85;0.70;;;;;;;4.12;100.00;99535.81;6132975;23;20012;-85
2021/12/04 00:36:13;;;;;;;6.18;1.05;;;;;;;4.05;100.00;99532.19;6133937;23;20009;-87
2021/12/04 00:49:20;;;;;;;3.47;0.95;;;;;;;3.99;100.00;99529.31;6161685;23;20001;-88
2021/12/04 00:51:55;;;;;;;5.57;0.80;;;;;;;3.98;100.00;99507.22;6183005;23;20190;-87
2021/12/04 00:54:24;;;;;;;0.80;0.60;;;;;;;4.00;100.00;99517.72;6110069;23;20076;-86
2021/12/04 00:56:51;;;;;;;5.13;0.88;;;;;;;3.93;100.00;99515.69;6157218;23;20039;-85
2021/12/04 00:59:19;;;;;;;1.98;0.90;;;;;;;3.97;100.00;99529.50;6157136;23;20460;-85
2021/12/04 01:01:47;;;;;;;1.65;0.70;;;;;;;3.99;100.00;99537.31;6157334;23;20052;-87
2021/12/04 01:04:15;;;;;;;7.25;1.35;;;;;;;3.93;100.00;99523.66;6157100;23;20005;-86
2021/12/04 01:06:41;;;;;;;4.97;1.05;;;;;;;3.81;100.00;99521.47;6157859;23;20005;-87
2021/12/04 01:09:09;;;;;;;1.00;0.90;;;;;;;3.81;100.00;99526.78;6156822;23;20330;-87
2021/12/04 01:11:36;;;;;;;4.95;1.48;;;;;;;3.83;100.00;99530.13;6132906;23;20009;-86
2021/12/04 01:14:03;;;;;;;7.47;1.27;;;;;;;3.86;100.00;99533.28;6132203;23;20425;-87
2021/12/04 01:16:28;;;;;;;4.85;1.10;;;;;;;3.86;100.00;99524.47;6157674;23;20005;-86
2021/12/04 01:18:54;;;;;;;5.20;1.38;;;;;;;3.79;100.00;99519.00;6156804;23;20017;-88
2021/12/04 01:21:20;;;;;;;2.45;0.90;;;;;;;3.87;100.00;99529.66;6108102;23;20088;-87
2021/12/04 01:23:45;;;;;;;9.52;1.33;;;;;;;4.01;100.00;99528.16;6108380;23;20071;-86
2021/12/04 01:26:11;;;;;;;3.58;0.82;;;;;;;3.97;100.00;99537.50;6157427;23;20430;-87
2021/12/04 01:28:37;;;;;;;1.33;0.45;;;;;;;3.90;100.00;99550.59;6132123;23;20033;-87
2021/12/04 01:31:03;;;;;;;6.93;1.17;;;;;;;3.86;100.00;99540.44;6132320;23;20009;-85
2021/12/04 01:33:28;;;;;;;12.60;1.10;;;;;;;3.73;100.00;99551.53;6157278;23;20092;-87
2021/12/04 01:35:54;;;;;;;7.90;1.45;;;;;;;3.67;100.00;99549.53;6157380;23;20009;-87
2021/12/04 01:38:20;;;;;;;12.95;2.13;;;;;;;3.56;100.00;99558.63;6132901;23;20040;-87
2021/12/04 01:40:45;;;;;;;6.03;1.17;;;;;;;3.44;100.00;99541.28;6156904;23;20333;-86
2021/12/04 01:43:11;;;;;;;2.83;1.60;;;;;;;3.40;100.00;99548.75;6156982;23;20015;-88
2021/12/04 01:45:37;;;;;;;4.03;0.60;;;;;;;3.43;100.00;99550.25;6132494;23;20418;-87
2021/12/04 01:48:03;;;;;;;9.55;1.05;;;;;;;3.48;100.00;99555.94;6107353;23;20096;-87
2021/12/04 01:50:30;;;;;;;12.93;1.50;;;;;;;3.57;100.00;99531.03;6132360;23;20141;-86
2021/12/04 01:52:57;;;;;;;9.88;1.83;;;;;;;3.59;100.00;99529.06;6133047;23;20329;-86
2021/12/04 01:55:27;;;;;;;9.07;1.50;;;;;;;3.68;100.00;99540.56;6157611;23;20005;-86
2021/12/04 01:57:55;;;;;;;4.90;0.98;;;;;;;3.69;100.00;99531.59;6131776;23;20423;-86
2021/12/04 02:00:21;;;;;;;3.75;1.10;;;;;;;3.73;100.00;99533.78;6132292;23;20006;-87
2021/12/04 02:02:47;;;;;;;10.40;2.75;;;;;;;3.75;100.00;99529.09;6156918;23;20009;-88
2021/12/04 02:05:13;;;;;;;7.03;1.35;;;;;;;3.88;100.00;99562.38;6131550;23;20071;-86
2021/12/04 02:07:39;;;;;;;6.00;0.95;;;;;;;4.04;100.00;99549.13;6132466;23;19997;-88
2021/12/04 02:10:06;;;;;;;11.82;1.88;;;;;;;4.13;100.00;99558.78;6132006;23;20071;-86
2021/12/04 02:12:31;;;;;;;12.82;2.08;;;;;;;4.16;100.00;99566.44;6132299;23;20005;-89
2021/12/04 02:15:01;;;;;;;7.18;2.10;;;;;;;4.16;100.00;99581.56;6131755;23;20327;-88
2021/12/04 02:17:26;;;;;;;3.65;1.45;;;;;;;4.17;100.00;99575.25;6132212;23;20342;-89
2021/12/04 02:19:52;;;;;;;3.83;1.38;;;;;;;4.13;100.00;99572.09;6131876;23;20493;-87
2021/12/04 02:22:18;;;;;;;10.30;1.35;;;;;;;4.06;100.00;99580.88;6131887;23;20233;-86
2021/12/04 02:24:43;;;;;;;3.30;0.93;;;;;;;3.84;100.00;99556.56;6156157;23;20001;-84
2021/12/04 02:27:13;;;;;;;5.97;1.00;;;;;;;3.67;100.00;99570.78;6156137;23;20036;-85
2021/12/04 02:29:47;;;;;;;5.03;1.00;;;;;;;3.56;100.00;99576.41;6157161;23;20031;-88
2021/12/04 02:32:19;;;;;;;6.72;1.08;;;;;;;3.50;100.00;99576.03;6158741;23;20001;-85
2021/12/04 02:37:40;;;;;;;0.45;0.45;;;;;;;3.44;100.00;99607.72;6135265;23;20021;-90
2021/12/04 02:40:10;;;;;;;0.63;0.63;;;;;;;3.33;100.00;99568.97;6156708;23;20012;-86
2021/12/04 02:42:36;;;;;;;0.30;0.30;;;;;;;3.22;100.00;99586.00;6156509;23;20381;-85
2021/12/04 02:45:04;;;;;;;1.25;0.52;;;;;;;3.20;100.00;99581.84;6132179;23;20005;-86
2021/12/04 02:47:30;;;;;;;0.30;0.30;;;;;;;3.14;100.00;99595.75;6107635;23;20012;-86
2021/12/04 02:49:56;;;;;;;0.40;0.40;;;;;;;3.06;100.00;99600.03;6131969;23;20005;-84
2021/12/04 02:52:23;;;;;;;1.10;1.10;;;;;;;3.04;100.00;99599.38;6107667;23;20460;-86
2021/12/04 02:54:50;;;;;;;0.73;0.73;;;;;;;3.04;100.00;99588.75;6131707;23;20012;-85
2021/12/04 02:57:17;;;;;;;0.30;0.30;;;;;;;3.05;100.00;99587.75;6107874;23;20005;-86
2021/12/04 02:59:47;;;;;;;0.30;0.30;;;;;;;3.08;100.00;99575.97;6156568;23;20043;-86
2021/12/04 03:02:17;;;;;;;0.30;0.30;;;;;;;3.12;100.00;99581.81;6132188;23;20001;-86
2021/12/04 03:04:44;;;;;;;0.38;0.38;;;;;;;3.13;100.00;99580.84;6155722;23;20009;-89
2021/12/04 03:07:10;;;;;;;0.40;0.40;;;;;;;3.04;100.00;99588.75;6107023;23;20007;-86
2021/12/04 03:09:36;;;;;;;0.30;0.30;;;;;;;3.01;100.00;99582.91;6132151;23;20040;-85
2021/12/04 03:12:04;;;;;;;0.30;0.30;;;;;;;3.05;100.00;99594.88;6131878;23;20421;-85
2021/12/04 03:14:29;;;;;;;0.30;0.30;;;;;;;3.04;100.00;99599.38;6107355;23;20099;-85
2021/12/04 03:16:56;;;;;;;0.45;0.45;;;;;;;3.02;100.00;99605.81;6156913;23;20028;-86
2021/12/04 03:19:26;;;;;;;0.43;0.43;;;;;;;3.00;100.00;99603.31;6156849;23;20127;-86
2021/12/04 03:21:52;;;;;;;0.32;0.32;;;;;;;2.98;100.00;99607.94;6131612;23;20001;-86
2021/12/04 03:24:18;;;;;;;0.30;0.30;;;;;;;2.98;100.00;99601.81;6156129;23;20001;-86
2021/12/04 03:26:46;;;;;;;1.55;0.77;;;;;;;2.98;100.00;99599.97;6156300;23;20350;-86
2021/12/04 03:29:16;;;;;;;0.30;0.30;;;;;;;3.04;100.00;99603.81;6132337;23;20017;-84
2021/12/04 03:40:33;;;;;;;0.30;0.30;;;;;;;3.33;100.00;99638.03;6160569;23;20457;-85
2021/12/04 03:42:47;;;;;;;0.30;0.30;;;;;;;3.38;100.00;99657.00;6132776;23;20005;-86
2021/12/04 03:45:13;;;;;;;0.30;0.30;;;;;;;3.32;100.00;99639.06;6155608;23;20453;-85
2021/12/04 03:47:42;;;;;;;0.30;0.30;;;;;;;3.33;100.00;99634.56;6131650;23;20001;-86
2021/12/04 03:50:08;;;;;;;0.52;0.43;;;;;;;3.36;100.00;99642.22;6156437;23;20005;-86
2021/12/04 03:52:36;;;;;;;0.30;0.30;;;;;;;3.29;100.00;99626.09;6157198;23;20009;-86
2021/12/04 03:55:05;;;;;;;0.30;0.30;;;;;;;3.14;100.00;99631.13;6158081;23;20007;-85
2021/12/04 03:57:31;;;;;;;0.30;0.30;;;;;;;3.01;100.00;99631.53;6109714;23;20009;-85
2021/12/04 03:59:59;;;;;;;0.30;0.30;;;;;;;2.90;100.00;99637.09;6133860;23;20150;-86
2021/12/04 04:02:26;;;;;;;0.30;0.30;;;;;;;2.85;100.00;99647.34;6158394;23;20123;-86
2021/12/04 04:04:54;;;;;;;0.70;0.70;;;;;;;2.83;100.00;99658.13;6158006;23;20460;-85
2021/12/04 04:07:21;;;;;;;0.30;0.30;;;;;;;2.90;100.00;99653.03;6133951;23;20723;-87
2021/12/04 04:09:46;;;;;;;0.30;0.30;;;;;;;2.98;100.00;99657.56;6133595;23;20520;-85
2021/12/04 04:12:12;;;;;;;0.30;0.30;;;;;;;3.05;100.00;99667.41;6133075;23;20095;-86
2021/12/04 04:14:38;;;;;;;0.30;0.30;;;;;;;3.15;100.00;99662.03;6133895;23;20009;-85
2021/12/04 04:17:04;;;;;;;0.85;0.77;;;;;;;3.14;100.00;99664.81;6133837;23;20017;-86
2021/12/04 04:19:30;;;;;;;0.93;0.93;;;;;;;3.13;100.00;99671.13;6108828;23;20004;-86
2021/12/04 04:21:56;;;;;;;0.35;0.35;;;;;;;3.08;100.00;99661.78;6157927;23;20059;-86
2021/12/04 04:24:24;;;;;;;0.35;0.35;;;;;;;3.06;100.00;99655.78;6183958;23;20425;-86
2021/12/04 04:26:50;;;;;;;0.40;0.40;;;;;;;3.07;100.00;99657.47;6132885;23;20009;-85
2021/12/04 04:29:16;;;;;;;0.65;0.50;;;;;;;3.06;100.00;99655.78;6157671;23;20384;-87
2021/12/04 04:31:46;;;;;;;0.30;0.30;;;;;;;2.98;100.00;99647.78;6158613;23;20001;-86
2021/12/04 04:34:13;;;;;;;0.30;0.30;;;;;;;2.87;100.00;99642.72;6134448;23;20079;-86
2021/12/04 05:11:20;;;;;;;0.40;0.40;;;;;;;3.38;100.00;99659.66;6161782;23;20001;-86
2021/12/04 05:13:46;;;;;;;0.30;0.30;;;;;;;3.33;100.00;99646.00;6109856;23;20092;-86
2021/12/04 05:16:14;;;;;;;0.40;0.40;;;;;;;3.38;100.00;99657.00;6132726;23;20025;-85
2021/12/04 05:19:11;;;;;;;0.40;0.40;;;;;;;3.42;100.00;99670.84;6157906;23;20005;-87
2021/12/04 05:21:33;;;;;;;1.95;1.20;;;;;;;3.35;100.00;99643.22;6135764;23;20300;-86
2021/12/04 05:24:02;;;;;;;0.30;0.30;;;;;;;3.41;100.00;99663.84;6134688;23;20005;-86
2021/12/04 05:26:29;;;;;;;0.30;0.30;;;;;;;3.47;100.00;99680.00;6157476;23;20009;-86
2021/12/04 05:29:00;;;;;;;0.40;0.40;;;;;;;3.44;100.00;99674.16;6107846;23;20051;-85
2021/12/04 05:31:27;;;;;;;0.30;0.30;;;;;;;3.46;100.00;99686.28;6108900;23;20021;-85
2021/12/04 05:33:53;;;;;;;0.30;0.30;;;;;;;3.40;100.00;99673.63;6132624;23;20013;-84
2021/12/04 05:36:19;;;;;;;0.63;0.57;;;;;;;3.46;100.00;99688.13;6108584;23;20008;-84
2021/12/04 05:38:45;;;;;;;1.35;0.82;;;;;;;3.49;100.00;99682.50;6157287;23;20016;-86
2021/12/04 05:41:11;;;;;;;0.30;0.30;;;;;;;3.50;100.00;99679.69;6108474;23;20002;-87
2021/12/04 05:43:36;;;;;;;0.43;0.40;;;;;;;3.47;100.00;99666.72;6132438;23;20071;-85
2021/12/04 05:49:01;;;;;;;;;;;;;;;3.53;100.00;99692.66;6158703;23;20067;-85
2021/12/04 05:51:35;;;;;;;0.45;0.40;;;;;;;3.48;100.00;99671.03;6161104;23;19904;-86
2021/12/04 05:54:04;;;;;;;0.50;0.50;;;;;;;3.36;100.00;99679.41;6132497;23;20040;-87
2021/12/04 05:56:32;;;;;;;0.75;0.60;;;;;;;3.29;100.00;99681.88;6157736;23;20067;-85
2021/12/04 05:58:58;;;;;;;2.67;0.85;;;;;;;3.21;100.00;99687.97;6157104;23;20308;-86
2021/12/04 06:01:25;;;;;;;5.85;0.82;;;;;;;3.13;100.00;99690.56;6132568;23;20456;-85
2021/12/04 06:03:51;;;;;;;0.85;0.85;;;;;;;3.11;100.00;99692.53;6107754;23;20015;-86
2021/12/04 06:06:17;;;;;;;6.85;1.38;;;;;;;3.03;100.00;99709.22;6132145;23;20009;-86
2021/12/04 06:08:43;;;;;;;3.40;1.08;;;;;;;2.97;100.00;99699.22;6132634;23;20012;-85
2021/12/04 06:11:09;;;;;;;14.88;1.58;;;;;;;2.92;100.00;99706.81;6156457;23;20080;-85
2021/12/04 06:13:35;;;;;;;0.50;0.50;;;;;;;2.84;100.00;99706.75;6108190;23;20481;-87
2021/12/04 06:16:00;;;;;;;6.28;1.63;;;;;;;2.81;100.00;99702.56;6131499;23;20051;-86
2021/12/04 06:18:26;;;;;;;9.60;1.08;;;;;;;2.73;100.00;99699.00;6131754;23;20519;-86
2021/12/04 06:23:36;;;;;;;10.23;0.98;;;;;;;2.63;100.00;99702.56;6135132;23;20005;-86
2021/12/04 06:26:05;;;;;;;4.82;0.75;;;;;;;2.61;100.00;99703.69;6107135;23;20329;-87
2021/12/04 06:28:31;;;;;;;13.93;1.55;;;;;;;2.60;100.00;99692.25;6156663;23;20426;-85
2021/12/04 06:30:59;;;;;;;4.93;0.85;;;;;;;2.64;100.00;99698.91;6132500;23;20060;-85
2021/12/04 06:33:25;;;;;;;10.57;0.90;;;;;;;2.69;100.00;99695.81;6131793;23;20017;-88
2021/12/04 06:35:52;;;;;;;4.13;1.23;;;;;;;2.81;100.00;99704.41;6157184;23;20016;-86
2021/12/04 06:38:18;;;;;;;4.00;1.00;;;;;;;2.92;100.00;99712.13;6182862;23;20040;-85
2021/12/04 06:40:46;;;;;;;8.88;1.58;;;;;;;2.90;100.00;99703.47;6132056;23;20009;-85
2021/12/04 06:43:12;;;;;;;11.18;1.58;;;;;;;2.79;100.00;99701.03;6156487;23;20005;-86
2021/12/04 06:45:41;;;;;;;5.85;0.85;;;;;;;2.70;100.00;99708.09;6156141;23;20011;-84
2021/12/04 06:48:31;;;;;;;5.05;1.27;;;;;;;2.66;100.00;99705.91;6156584;23;20013;-87
2021/12/04 06:51:00;;;;;;;7.22;0.82;;;;;;;2.64;100.00;99708.69;6136072;23;20318;-86
2021/12/04 06:53:34;;;;;;;6.03;0.75;;;;;;;2.54;100.00;99713.22;6108654;23;20019;-86
2021/12/04 06:56:00;;;;;;;7.38;1.17;;;;;;;2.48;100.00;99709.34;6156068;23;20005;-86
2021/12/04 06:58:27;;;;;;;4.97;0.85;;;;;;;2.46;100.00;99719.31;6107355;23;20032;-85
2021/12/04 07:00:53;;;;;;;5.72;1.05;;;;;;;2.44;100.00;99723.91;6131963;23;20009;-86
2021/12/04 07:03:19;;;;;;;9.18;1.58;;;;;;;2.40;100.00;99714.56;6156108;23;20013;-86
2021/12/04 07:05:45;;;;;;;9.73;1.45;;;;;;;2.41;100.00;99719.75;6107700;23;20016;-85
2021/12/04 07:08:11;;;;;;;4.47;1.00;;;;;;;2.37;100.00;99722.84;6107144;23;20013;-86
2021/12/04 07:10:37;;;;;;;6.35;0.90;;;;;;;2.35;100.00;99730.09;6156555;23;20441;-85
2021/12/04 07:13:04;;;;;;;6.22;0.95;;;;;;;2.38;100.00;99738.63;6107324;23;20016;-86
2021/12/04 07:15:31;;;;;;;4.22;1.10;;;;;;;2.40;100.00;99733.16;6107548;23;20036;-85
2021/12/04 07:17:58;;;;;;;5.60;1.33;;;;;;;2.50;100.00;99736.56;6131540;23;20344;-86
2021/12/04 07:20:24;;;;;;;2.72;1.00;;;;;;;2.56;100.00;99728.00;6156854;23;20025;-86
2021/12/04 07:22:50;;;;;;;7.40;1.42;;;;;;;2.64;100.00;99730.75;6131470;23;20006;-86
2021/12/04 07:25:16;;;;;;;5.72;0.70;;;;;;;2.71;100.00;99738.13;6107256;23;20015;-86
2021/12/04 07:27:42;;;;;;;3.75;1.10;;;;;;;2.90;100.00;99719.41;6131229;23;20444;-86
2021/12/04 07:30:09;;;;;;;0.43;0.43;;;;;;;3.00;100.00;99722.81;6155665;23;20008;-85
2021/12/04 07:32:36;;;;;;;5.80;1.10;;;;;;;3.09;100.00;99727.19;6106581;23;20477;-86
2021/12/04 07:35:03;;;;;;;0.77;0.77;;;;;;;3.14;100.00;99731.22;6132138;23;20013;-87
2021/12/04 07:37:28;;;;;;;3.38;0.80;;;;;;;3.11;100.00;99728.88;6106983;23;20520;-86
2021/12/04 07:39:54;;;;;;;10.55;1.70;;;;;;;3.09;100.00;99724.53;6131457;23;20013;-86
2021/12/04 07:42:20;;;;;;;4.10;0.80;;;;;;;3.03;100.00;99724.31;6131836;23;20414;-85
2021/12/04 07:44:57;;;;;;;5.32;1.23;;;;;;;3.02;100.00;99727.97;6131477;23;20158;-86
2021/12/04 07:47:23;;;;;;;10.52;1.83;;;;;;;3.00;100.00;99735.25;6131323;23;20005;-87
2021/12/04 07:49:48;;;;;;;9.98;0.98;;;;;;;2.94;100.00;99733.19;6155603;23;20020;-85
2021/12/04 07:52:17;;;;;;;10.02;1.63;;;;;;;2.91;100.00;99734.34;6155020;23;20358;-87
2021/12/04 07:54:48;;;;;;;4.72;1.02;;;;;;;2.96;100.00;99740.03;6106935;23;20411;-87
2021/12/04 07:57:13;;;;;;;11.05;1.60;;;;;;;2.93;100.00;99745.63;6131668;23;20016;-86
2021/12/04 07:59:39;;;;;;;9.48;1.60;;;;;;;3.06;100.00;99756.72;6156323;23;20330;-86
2021/12/04 08:02:05;;;;;;;7.00;1.25;;;;;;;3.14;100.00;99766.59;6131983;23;20005;-84
2021/12/04 08:04:30;;;;;;;5.55;1.73;;;;;;;3.14;100.00;99830.34;6131437;23;20293;-85
2021/12/04 08:06:56;;;;;;;3.83;1.00;;;;;;;2.79;100.00;99797.44;6155971;23;20016;-82
2021/12/04 08:09:22;;;;;;;1.65;0.65;;;;;;;2.70;100.00;99782.44;6155433;23;20031;-83
2021/12/04 08:11:50;;;;;;;0.30;0.30;;;;;;;2.70;100.00;99773.59;6155063;23;20008;-85
2021/12/04 08:14:19;;;;;;;0.30;0.30;;;;;;;2.67;100.00;99773.91;6155305;23;20012;-84
2021/12/04 08:16:48;;;;;;;0.30;0.30;;;;;;;2.58;100.00;99773.81;6130487;23;20468;-88
2021/12/04 08:19:14;;;;;;;0.35;0.35;;;;;;;2.61;100.00;99776.16;6106825;23;20061;-83
2021/12/04 08:21:39;;;;;;;0.30;0.30;;;;;;;2.59;100.00;99780.81;6181405;23;20406;-85
2021/12/04 08:24:06;;;;;;;0.30;0.30;;;;;;;2.49;100.00;99766.75;6155510;23;20394;-84
2021/12/04 08:26:39;;;;;;;0.30;0.30;;;;;;;2.50;100.00;99767.59;6130952;23;20590;-83
2021/12/04 08:29:07;;;;;;;0.30;0.30;;;;;;;2.48;100.00;99777.50;6107812;23;20011;-85
2021/12/04 08:31:34;;;;;;;0.47;0.47;;;;;;;2.57;100.00;99766.84;6130580;23;20087;-86
2021/12/04 08:33:59;;;;;;;0.30;0.30;;;;;;;2.58;100.00;99762.38;6106348;23;20099;-85
2021/12/04 08:36:26;;;;;;;0.30;0.30;;;;;;;2.66;100.00;99786.34;6130946;23;20017;-84
2021/12/04 08:38:51;;;;;;;0.30;0.30;;;;;;;2.62;100.00;99774.38;6132091;23;20016;-85
2021/12/04 08:41:18;;;;;;;0.30;0.30;;;;;;;2.54;100.00;99783.06;6158119;23;20312;-84
2021/12/04 08:43:44;;;;;;;0.30;0.30;;;;;;;2.58;100.00;99800.34;6133447;23;20012;-86
2021/12/04 08:46:10;;;;;;;0.30;0.30;;;;;;;2.62;100.00;99788.47;6132709;23;20001;-85
2021/12/04 08:48:36;;;;;;;0.30;0.30;;;;;;;2.63;100.00;99784.81;6108320;23;20040;-85
2021/12/04 08:51:03;;;;;;;0.30;0.30;;;;;;;2.74;100.00;99789.09;6108690;23;20329;-86
2021/12/04 08:53:29;;;;;;;0.35;0.35;;;;;;;2.77;100.00;99795.91;6154593;23;20039;-86
2021/12/04 08:55:55;;;;;;;0.40;0.40;;;;;;;2.73;100.00;99792.75;6108923;23;20005;-86
2021/12/04 08:58:23;;;;;;;0.40;0.40;;;;;;;2.71;100.00;99785.91;6157772;23;20008;-85
2021/12/04 09:01:00;;;;;;;0.40;0.40;;;;;;;2.71;100.00;99799.19;6107476;23;20080;-85
2021/12/04 09:03:29;;;;;;;0.30;0.30;;;;;;;2.73;100.00;99810.50;6132539;23;20443;-84
2021/12/04 09:05:55;;;;;;;0.38;0.38;;;;;;;2.76;100.00;99804.88;6107977;23;20417;-85
2021/12/04 09:08:22;;;;;;;0.40;0.40;;;;;;;2.82;100.00;99820.19;6157775;23;20051;-85
2021/12/04 09:10:52;;;;;;;0.40;0.40;;;;;;;2.89;100.00;99818.63;6157552;23;20017;-85
2021/12/04 09:13:19;;;;;;;0.30;0.30;;;;;;;3.01;100.00;99817.41;6132919;23;20067;-84
2021/12/04 09:15:45;;;;;;;0.30;0.30;;;;;;;3.11;100.00;99814.69;6132431;23;20417;-85
2021/12/04 09:18:11;;;;;;;0.30;0.30;;;;;;;3.28;100.00;99821.00;6107997;23;20005;-86
2021/12/04 09:20:37;;;;;;;0.30;0.30;;;;;;;3.38;100.00;99813.78;6156906;23;20059;-85
2021/12/04 09:23:06;;;;;;;5.47;1.58;;;;;;;3.46;100.00;99819.16;6157088;23;20001;-86
2021/12/04 09:25:33;;;;;;;0.30;0.30;;;;;;;3.49;100.00;99823.34;6132870;23;20058;-86
2021/12/04 10:00:38;;;;;;;0.40;0.40;;;;;;;4.29;100.00;99858.69;6161986;23;20001;-85
2021/12/04 10:03:12;;;;;;;0.30;0.30;;;;;;;4.31;100.00;99846.06;6136364;23;20318;-86
2021/12/04 10:11:28;;;;;;;0.43;0.35;;;;;;;4.25;100.00;99875.94;6161116;23;20027;-86
2021/12/04 10:17:07;;;;;;;0.30;0.30;;;;;;;3.74;100.00;99890.88;6135829;23;20012;-87
2021/12/04 10:22:24;;;;;;;0.30;0.30;;;;;;;3.41;100.00;99871.94;6158633;23;20012;-89
2021/12/04 10:33:41;;;;;;;0.40;0.40;;;;;;;3.20;100.00;99872.25;6156285;23;20008;-88
2021/12/04 10:36:13;;;;;;;0.40;0.40;;;;;;;3.24;100.00;99862.97;6107952;23;20016;-84
2021/12/04 10:38:44;;;;;;;0.50;0.50;;;;;;;3.31;100.00;99876.50;6158029;23;20013;-87
2021/12/04 10:41:15;;;;;;;0.40;0.40;;;;;;;3.42;100.00;99875.47;6132047;23;20037;-83
2021/12/04 10:43:43;;;;;;;0.40;0.40;;;;;;;3.71;100.00;99885.84;6109194;23;20009;-83
2021/12/04 10:46:16;;;;;;;0.50;0.50;;;;;;;4.27;100.00;99879.28;6108227;23;20025;-85
2021/12/04 10:48:53;;;;;;;0.40;0.40;;;;;;;4.48;100.00;99872.75;6134650;23;20005;-84
2021/12/04 10:51:36;;;;;;;0.40;0.40;;;;;;;4.04;100.00;99868.31;6133235;23;20067;-88
2021/12/04 10:54:26;;;;;;;0.32;0.32;;;;;;;3.62;100.00;99871.63;6137378;23;19997;-86
2021/12/04 10:57:17;;;;;;;0.30;0.30;;;;;;;3.41;100.00;99874.59;6131823;23;20013;-83
2021/12/04 11:00:00;;;;;;;0.40;0.40;;;;;;;3.33;100.00;99879.00;6155808;23;20005;-85
2021/12/04 11:02:51;;;;;;;0.40;0.40;;;;;;;3.47;100.00;99871.34;6156187;23;20437;-83
2021/12/04 11:27:57;;;;;;;0.60;0.60;;;;;;;5.30;100.00;99857.91;6135270;23;20005;-90
2021/12/04 11:36:20;;;;;;;0.30;0.30;;;;;;;4.08;100.00;99858.22;6135799;23;20051;-89
2021/12/04 11:39:26;;;;;;;0.30;0.30;;;;;;;3.98;100.00;99868.94;6155954;23;20020;-85
2021/12/04 11:41:43;;;;;;;0.40;0.40;;;;;;;4.68;100.00;99876.84;6157479;23;20037;-86
2021/12/04 11:44:12;;;;;;;0.40;0.40;;;;;;;5.73;100.00;99877.28;6157571;23;20483;-91
2021/12/04 11:49:31;;;;;;;0.47;0.47;;;;;;;8.45;93.57;99876.66;6131455;23;20009;-88
2021/12/04 11:52:04;;;;;;;0.50;0.50;;;;;;;9.09;90.20;99878.75;6131668;23;20036;-87
2021/12/04 11:54:46;;;;;;;2.35;1.40;;;;;;;9.75;88.09;99867.91;6107886;23;20005;-90
2021/12/04 11:57:14;;;;;;;1.30;0.65;;;;;;;10.44;86.34;99883.38;6107424;23;20005;-84
2021/12/04 11:59:41;;;;;;;0.50;0.50;;;;;;;10.95;85.21;99874.13;6131869;23;20033;-88
2021/12/04 12:02:09;;;;;;;0.40;0.40;;;;;;;10.61;85.13;99877.69;6106847;23;20001;-84
2021/12/04 12:04:43;;;;;;;6.72;0.95;;;;;;;8.41;92.87;99882.56;6107254;23;20092;-87
2021/12/04 12:07:16;;;;;;;7.00;0.80;;;;;;;6.85;98.75;99872.09;6107953;23;20483;-84
2021/12/04 12:09:43;;;;;;;0.93;0.73;;;;;;;6.01;100.00;99880.50;6131577;23;20005;-87
2021/12/04 12:12:14;;;;;;;0.65;0.50;;;;;;;5.43;100.00;99882.25;6106901;23;20009;-89
2021/12/04 12:14:48;;;;;;;0.47;0.47;;;;;;;5.01;100.00;99880.47;6133882;23;20041;-85
2021/12/04 12:17:16;;;;;;;0.73;0.43;;;;;;;4.69;100.00;99889.19;6132870;23;20325;-91
2021/12/04 12:19:50;;;;;;;0.52;0.38;;;;;;;4.51;100.00;99889.25;6158381;23;20005;-85
2021/12/04 12:33:56;;;;;;;1.08;0.73;;;;;;;10.37;82.46;99892.41;6157387;23;20016;-88
2021/12/04 12:36:30;;;;;;;1.73;0.70;;;;;;;10.70;80.92;99892.63;6136370;23;20429;-85
2021/12/04 12:39:05;;;;;;;3.03;0.90;;;;;;;10.90;80.07;99896.28;6109107;23;20028;-85
2021/12/04 12:41:40;;;;;;;2.88;0.88;;;;;;;11.03;79.67;99903.56;6132823;23;20005;-88
2021/12/04 12:44:26;;;;;;;2.72;1.02;;;;;;;11.25;79.73;99890.84;6157007;23;20012;-86
2021/12/04 12:46:55;;;;;;;4.10;0.80;;;;;;;11.52;79.51;99885.53;6156805;23;20013;-86
2021/12/04 12:49:24;;;;;;;2.85;1.02;;;;;;;11.81;78.73;99878.97;6184215;23;20026;-87
2021/12/04 12:52:03;;;;;;;5.07;0.77;;;;;;;12.14;77.69;99887.06;6133848;23;20051;-87
2021/12/04 12:54:58;;;;;;;4.38;1.40;;;;;;;12.43;76.61;99910.06;6157924;23;20013;-88
2021/12/04 12:57:34;;;;;;;6.47;1.52;;;;;;;12.52;76.62;99891.84;6110217;23;20013;-91
2021/12/04 13:12:15;;;;;;;12.75;1.83;;;;;;;7.97;93.27;99907.38;6157645;23;20009;-88
2021/12/04 13:14:41;;;;;;;3.97;1.27;;;;;;;7.36;96.13;99905.44;6134847;23;20028;-89
2021/12/04 13:17:14;;;;;;;4.20;1.00;;;;;;;6.66;98.99;99916.91;6157163;23;20012;-86
2021/12/04 13:19:51;;;;;;;3.95;1.30;;;;;;;6.10;100.00;99916.00;6134851;23;20009;-86
2021/12/04 13:22:25;;;;;;;1.13;0.75;;;;;;;6.79;100.00;99911.88;6132047;23;20071;-87
2021/12/04 13:24:58;;;;;;;3.00;0.82;;;;;;;9.17;91.40;99921.56;6107790;23;20503;-89
2021/12/04 13:29:58;;;;;;;4.32;2.22;;;;;;;11.76;80.43;99925.34;6157988;23;20001;-88
2021/12/04 13:32:36;;;;;;;2.17;0.93;;;;;;;12.19;78.15;99921.50;6109566;23;20013;-91
2021/12/04 13:35:07;;;;;;;5.22;0.93;;;;;;;12.49;76.47;99932.69;6103532;23;20039;-92
2021/12/04 13:37:33;;;;;;;2.38;1.02;;;;;;;12.48;75.99;99920.25;6184113;23;20582;-90
2021/12/04 13:40:04;;;;;;;9.18;1.20;;;;;;;12.70;75.26;99920.84;6132875;23;20044;-90
2021/12/04 13:42:32;;;;;;;6.40;1.10;;;;;;;12.92;73.94;99916.03;6134048;23;20005;-94
2021/12/04 13:45:03;;;;;;;4.35;1.48;;;;;;;13.14;73.32;99927.38;6132588;23;20012;-89
2021/12/04 13:47:29;;;;;;;6.20;0.90;;;;;;;13.03;73.54;99920.75;6176552;23;20038;-90
2021/12/04 13:49:56;;;;;;;4.57;1.10;;;;;;;13.05;73.72;99926.78;6157301;23;20614;-88
2021/12/04 13:52:25;;;;;;;2.53;1.10;;;;;;;13.04;72.80;99949.41;6157318;23;20005;-84
2021/12/04 13:54:55;;;;;;;5.63;1.13;;;;;;;10.47;79.93;99933.22;6157335;23;20078;-91
2021/12/04 13:57:21;;;;;;;2.63;0.90;;;;;;;11.38;79.07;99950.09;6183344;23;20005;-94
2021/12/04 13:59:47;;;;;;;3.85;0.88;;;;;;;11.15;79.93;99934.25;6133729;23;20365;-87
2021/12/04 14:02:26;;;;;;;13.60;2.10;;;;;;;12.30;77.48;99940.59;6157515;23;20032;-87
2021/12/04 14:05:15;;;;;;;6.20;0.95;;;;;;;13.12;75.32;99959.13;6157173;23;20084;-89
2021/12/04 14:07:49;;;;;;;4.00;1.05;;;;;;;12.83;76.17;99947.78;6107672;23;20013;-89
2021/12/04 14:10:16;;;;;;;7.10;1.00;;;;;;;10.28;81.43;99964.28;6108245;23;20005;-86
2021/12/04 14:12:42;;;;;;;6.72;1.38;;;;;;;8.40;89.12;99966.63;6156894;23;20020;-87
2021/12/04 14:15:13;;;;;;;4.18;1.45;;;;;;;7.24;95.04;99990.56;6156680;23;20012;-91
2021/12/04 14:17:40;;;;;;;3.58;1.23;;;;;;;6.53;97.69;99968.19;6157806;23;19997;-89
2021/12/04 14:20:06;;;;;;;6.25;1.27;;;;;;;6.14;99.16;99984.09;6132110;23;20008;-88
2021/12/04 14:22:32;;;;;;;5.00;0.98;;;;;;;5.91;97.38;99991.84;6107595;23;20012;-87
2021/12/04 14:25:01;;;;;;;4.25;1.38;;;;;;;5.94;96.96;99989.72;6132750;23;20013;-87
2021/12/04 14:27:31;;;;;;;4.50;1.35;;;;;;;6.40;96.34;99989.22;6156053;23;20005;-90
2021/12/04 14:30:11;;;;;;;1.90;0.80;;;;;;;6.73;89.97;99984.69;6107666;23;20016;-89
2021/12/04 14:32:39;;;;;;;8.02;1.55;;;;;;;6.78;90.93;99974.34;6132133;23;20008;-86
2021/12/04 14:35:14;;;;;;;3.15;0.73;;;;;;;6.74;89.40;99989.03;6108156;23;20009;-88